createdAt,value
2017-10-27T00:01:29.739Z,1013.51
2017-10-27T00:02:30.356Z,1013.48
2017-10-27T00:03:30.957Z,1013.51
2017-10-27T00:04:31.553Z,1013.53
2017-10-27T00:05:32.215Z,1013.53
2017-10-27T00:06:32.821Z,1013.49
2017-10-27T00:07:33.414Z,1013.54
2017-10-27T00:08:34.015Z,1013.52
2017-10-27T00:09:34.633Z,1013.51
2017-10-27T00:10:35.244Z,1013.55
2017-10-27T00:11:35.845Z,1013.54
2017-10-27T00:12:36.453Z,1013.50
2017-10-27T00:13:37.072Z,1013.50
2017-10-27T00:14:37.682Z,1013.49
2017-10-27T00:15:38.289Z,1013.51
2017-10-27T00:16:38.905Z,1013.58
2017-10-27T00:17:39.516Z,1013.59
2017-10-27T00:18:40.112Z,1013.55
2017-10-27T00:19:40.718Z,1013.57
2017-10-27T00:20:41.316Z,1013.61
2017-10-27T00:21:41.923Z,1013.63
2017-10-27T00:22:42.538Z,1013.66
2017-10-27T00:23:43.150Z,1013.66
2017-10-27T00:24:43.760Z,1013.66
2017-10-27T00:25:44.355Z,1013.68
2017-10-27T00:26:44.965Z,1013.69
2017-10-27T00:27:45.582Z,1013.63
2017-10-27T00:28:46.181Z,1013.59
2017-10-27T00:29:46.776Z,1013.59
2017-10-27T00:30:47.381Z,1013.57
2017-10-27T00:31:47.987Z,1013.63
2017-10-27T00:32:48.596Z,1013.66
2017-10-27T00:33:49.192Z,1013.64
2017-10-27T00:34:49.801Z,1013.67
2017-10-27T00:35:50.412Z,1013.67
2017-10-27T00:36:51.023Z,1013.66
2017-10-27T00:37:51.656Z,1013.67
2017-10-27T00:38:52.273Z,1013.69
2017-10-27T00:39:52.889Z,1013.64
2017-10-27T00:40:53.485Z,1013.67
2017-10-27T00:41:54.079Z,1013.71
2017-10-27T00:42:54.681Z,1013.70
2017-10-27T00:43:55.291Z,1013.67
2017-10-27T00:44:55.905Z,1013.64
2017-10-27T00:45:56.523Z,1013.60
2017-10-27T00:46:57.134Z,1013.62
2017-10-27T00:47:57.732Z,1013.65
2017-10-27T00:48:58.335Z,1013.65
2017-10-27T00:49:58.966Z,1013.65
2017-10-27T00:50:59.562Z,1013.65
2017-10-27T00:52:00.168Z,1013.67
2017-10-27T00:53:00.780Z,1013.64
2017-10-27T00:54:01.428Z,1013.61
2017-10-27T00:55:02.019Z,1013.61
2017-10-27T00:56:02.624Z,1013.59
2017-10-27T00:57:03.240Z,1013.57
2017-10-27T00:58:03.839Z,1013.60
2017-10-27T00:59:04.434Z,1013.59
2017-10-27T01:00:05.039Z,1013.53
2017-10-27T01:01:05.663Z,1013.59
2017-10-27T01:02:06.272Z,1013.64
2017-10-27T01:03:06.863Z,1013.63
2017-10-27T01:04:07.462Z,1013.65
2017-10-27T01:05:08.064Z,1013.70
2017-10-27T01:06:08.670Z,1013.66
2017-10-27T01:07:09.275Z,1013.68
2017-10-27T01:08:09.872Z,1013.64
2017-10-27T01:09:10.486Z,1013.63
2017-10-27T01:10:11.101Z,1013.63
2017-10-27T01:11:11.705Z,1013.58
2017-10-27T01:12:12.301Z,1013.56
2017-10-27T01:13:12.933Z,1013.59
2017-10-27T01:14:13.532Z,1013.58
2017-10-27T01:15:14.143Z,1013.59
2017-10-27T01:16:14.737Z,1013.57
2017-10-27T01:17:15.354Z,1013.51
2017-10-27T01:18:15.979Z,1013.58
2017-10-27T01:19:16.584Z,1013.55
2017-10-27T01:20:17.184Z,1013.61
2017-10-27T01:21:17.794Z,1013.59
2017-10-27T01:22:18.400Z,1013.64
2017-10-27T01:23:19.004Z,1013.63
2017-10-27T01:24:19.618Z,1013.65
2017-10-27T01:25:20.240Z,1013.58
2017-10-27T01:26:20.857Z,1013.58
2017-10-27T01:27:21.460Z,1013.54
2017-10-27T01:28:22.061Z,1013.53
2017-10-27T01:29:22.676Z,1013.52
2017-10-27T01:30:23.261Z,1013.54
2017-10-27T01:31:23.862Z,1013.58
2017-10-27T01:32:24.475Z,1013.60
2017-10-27T01:33:25.082Z,1013.56
2017-10-27T01:34:25.703Z,1013.57
2017-10-27T01:35:26.297Z,1013.55
2017-10-27T01:36:26.930Z,1013.56
2017-10-27T01:37:27.535Z,1013.54
2017-10-27T01:38:28.140Z,1013.56
2017-10-27T01:39:28.742Z,1013.56
2017-10-27T01:40:29.333Z,1013.53
2017-10-27T01:41:29.927Z,1013.54
2017-10-27T01:42:30.539Z,1013.52
2017-10-27T01:43:31.148Z,1013.51
2017-10-27T01:44:31.793Z,1013.50
2017-10-27T01:45:32.385Z,1013.51
2017-10-27T01:46:32.983Z,1013.51
2017-10-27T01:47:33.588Z,1013.49
2017-10-27T01:48:34.180Z,1013.47
2017-10-27T01:49:34.788Z,1013.42
2017-10-27T01:50:35.402Z,1013.42
2017-10-27T01:51:36.015Z,1013.41
2017-10-27T01:52:36.678Z,1013.44
2017-10-27T01:53:37.267Z,1013.42
2017-10-27T01:54:37.874Z,1013.41
2017-10-27T01:55:38.485Z,1013.39
2017-10-27T01:56:39.096Z,1013.42
2017-10-27T01:57:39.747Z,1013.39
2017-10-27T01:58:40.322Z,1013.37
2017-10-27T01:59:40.923Z,1013.41
2017-10-27T02:00:41.528Z,1013.38
2017-10-27T02:01:42.142Z,1013.38
2017-10-27T02:02:42.753Z,1013.42
2017-10-27T02:03:43.363Z,1013.40
2017-10-27T02:04:43.961Z,1013.42
2017-10-27T02:05:44.569Z,1013.44
2017-10-27T02:06:45.168Z,1013.47
2017-10-27T02:07:45.773Z,1013.46
2017-10-27T02:08:46.383Z,1013.46
2017-10-27T02:09:46.988Z,1013.43
2017-10-27T02:10:47.655Z,1013.38
2017-10-27T02:11:48.212Z,1013.42
2017-10-27T02:12:48.820Z,1013.48
2017-10-27T02:13:49.436Z,1013.45
2017-10-27T02:14:50.045Z,1013.45
2017-10-27T02:15:50.649Z,1013.47
2017-10-27T02:16:51.254Z,1013.47
2017-10-27T02:17:51.849Z,1013.47
2017-10-27T02:18:52.451Z,1013.50
2017-10-27T02:19:53.060Z,1013.48
2017-10-27T02:20:53.661Z,1013.52
2017-10-27T02:21:54.261Z,1013.50
2017-10-27T02:22:54.867Z,1013.48
2017-10-27T02:23:55.475Z,1013.51
2017-10-27T02:24:56.083Z,1013.49
2017-10-27T02:25:56.691Z,1013.46
2017-10-27T02:26:57.315Z,1013.48
2017-10-27T02:27:57.928Z,1013.43
2017-10-27T02:28:58.534Z,1013.41
2017-10-27T02:29:59.132Z,1013.42
2017-10-27T02:30:59.733Z,1013.43
2017-10-27T02:32:00.345Z,1013.46
2017-10-27T02:33:00.944Z,1013.45
2017-10-27T02:34:01.548Z,1013.44
2017-10-27T02:35:02.149Z,1013.51
2017-10-27T02:36:02.755Z,1013.53
2017-10-27T02:37:03.372Z,1013.48
2017-10-27T02:38:03.969Z,1013.47
2017-10-27T02:39:04.575Z,1013.44
2017-10-27T02:40:05.179Z,1013.39
2017-10-27T02:41:05.785Z,1013.45
2017-10-27T02:42:06.392Z,1013.41
2017-10-27T02:43:06.994Z,1013.42
2017-10-27T02:44:07.610Z,1013.38
2017-10-27T02:45:08.212Z,1013.40
2017-10-27T02:46:08.850Z,1013.40
2017-10-27T02:47:09.474Z,1013.39
2017-10-27T02:48:10.075Z,1013.37
2017-10-27T02:49:10.671Z,1013.37
2017-10-27T02:50:11.274Z,1013.36
2017-10-27T02:51:11.879Z,1013.39
2017-10-27T02:52:12.483Z,1013.47
2017-10-27T02:53:13.092Z,1013.40
2017-10-27T02:54:13.707Z,1013.35
2017-10-27T02:55:14.312Z,1013.42
2017-10-27T02:56:14.918Z,1013.42
2017-10-27T02:57:15.521Z,1013.40
2017-10-27T02:58:16.117Z,1013.44
2017-10-27T02:59:16.753Z,1013.44
2017-10-27T03:00:17.339Z,1013.51
2017-10-27T03:01:17.986Z,1013.52
2017-10-27T03:02:18.598Z,1013.53
2017-10-27T03:03:19.201Z,1013.56
2017-10-27T03:04:19.808Z,1013.56
2017-10-27T03:05:20.402Z,1013.55
2017-10-27T03:06:21.088Z,1013.63
2017-10-27T03:07:21.714Z,1013.62
2017-10-27T03:08:22.318Z,1013.62
2017-10-27T03:09:22.928Z,1013.62
2017-10-27T03:10:23.588Z,1013.61
2017-10-27T03:11:24.168Z,1013.65
2017-10-27T03:12:24.783Z,1013.57
2017-10-27T03:13:25.391Z,1013.60
2017-10-27T03:14:25.994Z,1013.59
2017-10-27T03:15:26.593Z,1013.61
2017-10-27T03:16:27.203Z,1013.62
2017-10-27T03:17:27.813Z,1013.61
2017-10-27T03:18:28.452Z,1013.64
2017-10-27T03:19:29.036Z,1013.66
2017-10-27T03:20:29.634Z,1013.67
2017-10-27T03:21:30.242Z,1013.68
2017-10-27T03:22:30.838Z,1013.67
2017-10-27T03:23:31.447Z,1013.64
2017-10-27T03:24:32.037Z,1013.62
2017-10-27T03:25:32.650Z,1013.65
2017-10-27T03:26:33.259Z,1013.63
2017-10-27T03:27:33.870Z,1013.66
2017-10-27T03:28:34.476Z,1013.73
2017-10-27T03:29:35.083Z,1013.75
2017-10-27T03:30:35.685Z,1013.73
2017-10-27T03:31:36.286Z,1013.75
2017-10-27T03:32:36.878Z,1013.75
2017-10-27T03:33:37.503Z,1013.71
2017-10-27T03:34:38.091Z,1013.77
2017-10-27T03:35:38.701Z,1013.75
2017-10-27T03:36:39.309Z,1013.74
2017-10-27T03:37:39.923Z,1013.73
2017-10-27T03:38:40.554Z,1013.76
2017-10-27T03:39:41.178Z,1013.72
2017-10-27T03:40:41.775Z,1013.70
2017-10-27T03:41:42.384Z,1013.65
2017-10-27T03:42:42.991Z,1013.67
2017-10-27T03:43:43.608Z,1013.68
2017-10-27T03:44:44.178Z,1013.69
2017-10-27T03:45:44.810Z,1013.69
2017-10-27T03:46:45.406Z,1013.66
2017-10-27T03:47:46.016Z,1013.71
2017-10-27T03:48:46.640Z,1013.75
2017-10-27T03:49:47.234Z,1013.77
2017-10-27T03:50:47.854Z,1013.77
2017-10-27T03:51:48.467Z,1013.78
2017-10-27T03:52:49.071Z,1013.79
2017-10-27T03:53:49.675Z,1013.79
2017-10-27T03:54:50.284Z,1013.81
2017-10-27T03:55:50.894Z,1013.80
2017-10-27T03:56:51.507Z,1013.82
2017-10-27T03:57:52.112Z,1013.86
2017-10-27T03:58:52.713Z,1013.81
2017-10-27T03:59:53.335Z,1013.83
2017-10-27T04:00:53.939Z,1013.81
2017-10-27T04:01:54.509Z,1013.84
2017-10-27T04:02:55.116Z,1013.82
2017-10-27T04:03:55.732Z,1013.81
2017-10-27T04:04:56.346Z,1013.84
2017-10-27T04:05:56.953Z,1013.83
2017-10-27T04:06:57.567Z,1013.85
2017-10-27T04:07:58.187Z,1013.84
2017-10-27T04:08:58.788Z,1013.80
2017-10-27T04:09:59.383Z,1013.84
2017-10-27T04:10:59.991Z,1013.86
2017-10-27T04:12:00.609Z,1013.85
2017-10-27T04:13:01.225Z,1013.86
2017-10-27T04:14:01.835Z,1013.80
2017-10-27T04:15:02.443Z,1013.80
2017-10-27T04:16:03.051Z,1013.85
2017-10-27T04:17:03.661Z,1013.87
2017-10-27T04:18:04.268Z,1013.90
2017-10-27T04:19:04.871Z,1013.87
2017-10-27T04:20:05.466Z,1013.86
2017-10-27T04:21:06.071Z,1013.88
2017-10-27T04:22:06.678Z,1013.87
2017-10-27T04:23:07.270Z,1013.89
2017-10-27T04:24:07.872Z,1013.90
2017-10-27T04:25:08.484Z,1013.88
2017-10-27T04:26:09.100Z,1013.90
2017-10-27T04:27:09.694Z,1013.91
2017-10-27T04:28:10.294Z,1013.97
2017-10-27T04:29:10.897Z,1013.95
2017-10-27T04:30:11.508Z,1013.94
2017-10-27T04:31:12.127Z,1013.90
2017-10-27T04:32:12.717Z,1013.91
2017-10-27T04:33:13.320Z,1013.92
2017-10-27T04:34:13.941Z,1013.92
2017-10-27T04:35:14.535Z,1013.97
2017-10-27T04:36:15.131Z,1014.02
2017-10-27T04:37:15.727Z,1014.04
2017-10-27T04:38:16.336Z,1014.04
2017-10-27T04:39:16.927Z,1014.04
2017-10-27T04:40:17.526Z,1014.05
2017-10-27T04:41:18.138Z,1014.02
2017-10-27T04:42:18.747Z,1014.01
2017-10-27T04:43:19.359Z,1014.03
2017-10-27T04:44:19.966Z,1014.02
2017-10-27T04:45:20.572Z,1014.01
2017-10-27T04:46:21.183Z,1014.00
2017-10-27T04:47:21.792Z,1013.98
2017-10-27T04:48:22.383Z,1014.01
2017-10-27T04:49:22.995Z,1014.02
2017-10-27T04:50:23.585Z,1014.07
2017-10-27T04:51:24.198Z,1014.09
2017-10-27T04:52:24.802Z,1014.08
2017-10-27T04:53:25.408Z,1014.05
2017-10-27T04:54:26.005Z,1014.01
2017-10-27T04:55:26.614Z,1014.07
2017-10-27T04:56:27.224Z,1014.08
2017-10-27T04:57:27.834Z,1014.06
2017-10-27T04:58:28.443Z,1014.07
2017-10-27T04:59:29.052Z,1014.05
2017-10-27T05:00:29.660Z,1014.10
2017-10-27T05:01:30.265Z,1014.13
2017-10-27T05:02:30.875Z,1014.10
2017-10-27T05:03:31.474Z,1014.13
2017-10-27T05:04:32.094Z,1014.10
2017-10-27T05:05:32.692Z,1014.10
2017-10-27T05:06:33.287Z,1014.08
2017-10-27T05:07:33.897Z,1014.11
2017-10-27T05:08:34.490Z,1014.16
2017-10-27T05:09:35.097Z,1014.17
2017-10-27T05:10:35.737Z,1014.18
2017-10-27T05:11:36.337Z,1014.18
2017-10-27T05:12:36.945Z,1014.21
2017-10-27T05:13:37.623Z,1014.25
2017-10-27T05:14:38.287Z,1014.28
2017-10-27T05:15:38.878Z,1014.29
2017-10-27T05:16:39.482Z,1014.32
2017-10-27T05:17:40.103Z,1014.32
2017-10-27T05:18:40.712Z,1014.34
2017-10-27T05:19:41.320Z,1014.35
2017-10-27T05:20:41.927Z,1014.34
2017-10-27T05:21:42.538Z,1014.34
2017-10-27T05:22:43.181Z,1014.30
2017-10-27T05:23:43.844Z,1014.33
2017-10-27T05:24:44.479Z,1014.34
2017-10-27T05:25:45.106Z,1014.37
2017-10-27T05:26:45.719Z,1014.41
2017-10-27T05:27:46.334Z,1014.40
2017-10-27T05:28:46.943Z,1014.43
2017-10-27T05:29:47.556Z,1014.47
2017-10-27T05:30:48.164Z,1014.47
2017-10-27T05:31:48.773Z,1014.50
2017-10-27T05:32:49.442Z,1014.51
2017-10-27T05:33:50.250Z,1014.61
2017-10-27T05:34:50.908Z,1014.56
2017-10-27T05:35:51.493Z,1014.59
2017-10-27T05:36:52.109Z,1014.60
2017-10-27T05:37:52.718Z,1014.62
2017-10-27T05:38:53.326Z,1014.63
2017-10-27T05:39:53.935Z,1014.62
2017-10-27T05:40:54.546Z,1014.60
2017-10-27T05:41:55.157Z,1014.59
2017-10-27T05:42:55.769Z,1014.59
2017-10-27T05:43:56.405Z,1014.60
2017-10-27T05:44:57.024Z,1014.60
2017-10-27T05:45:57.683Z,1014.63
2017-10-27T05:46:58.299Z,1014.64
2017-10-27T05:47:58.959Z,1014.67
2017-10-27T05:48:59.518Z,1014.67
2017-10-27T05:50:00.148Z,1014.72
2017-10-27T05:51:00.761Z,1014.73
2017-10-27T05:52:01.373Z,1014.76
2017-10-27T05:53:01.980Z,1014.78
2017-10-27T05:54:02.589Z,1014.76
2017-10-27T05:55:03.184Z,1014.81
2017-10-27T05:56:03.795Z,1014.80
2017-10-27T05:57:04.386Z,1014.89
2017-10-27T05:58:04.979Z,1014.88
2017-10-27T05:59:05.582Z,1014.93
2017-10-27T06:00:06.205Z,1014.93
2017-10-27T06:01:06.782Z,1014.98
2017-10-27T06:02:07.385Z,1014.92
2017-10-27T06:03:07.991Z,1014.96
2017-10-27T06:04:08.602Z,1014.93
2017-10-27T06:05:09.251Z,1014.99
2017-10-27T06:06:09.840Z,1014.99
2017-10-27T06:07:10.434Z,1015.01
2017-10-27T06:08:11.044Z,1014.95
2017-10-27T06:09:11.641Z,1015.00
2017-10-27T06:10:12.248Z,1015.01
2017-10-27T06:11:12.862Z,1015.00
2017-10-27T06:12:13.475Z,1015.02
2017-10-27T06:13:14.090Z,1015.06
2017-10-27T06:14:14.703Z,1015.12
2017-10-27T06:15:15.304Z,1015.09
2017-10-27T06:16:15.906Z,1015.14
2017-10-27T06:17:16.515Z,1015.14
2017-10-27T06:18:17.115Z,1015.15
2017-10-27T06:19:17.726Z,1015.13
2017-10-27T06:20:18.334Z,1015.24
2017-10-27T06:21:18.946Z,1015.20
2017-10-27T06:22:19.561Z,1015.20
2017-10-27T06:23:20.174Z,1015.19
2017-10-27T06:24:20.788Z,1015.19
2017-10-27T06:25:21.387Z,1015.23
2017-10-27T06:26:22.002Z,1015.15
2017-10-27T06:27:22.613Z,1015.24
2017-10-27T06:28:23.256Z,1015.23
2017-10-27T06:29:23.839Z,1015.30
2017-10-27T06:30:24.445Z,1015.30
2017-10-27T06:31:25.106Z,1015.33
2017-10-27T06:32:25.718Z,1015.35
2017-10-27T06:33:26.368Z,1015.38
2017-10-27T06:34:26.961Z,1015.34
2017-10-27T06:35:27.591Z,1015.38
2017-10-27T06:36:28.195Z,1015.44
2017-10-27T06:37:28.820Z,1015.48
2017-10-27T06:38:29.628Z,1015.52
2017-10-27T06:39:30.210Z,1015.53
2017-10-27T06:40:30.834Z,1015.57
2017-10-27T06:41:31.456Z,1015.67
2017-10-27T06:42:32.078Z,1015.66
2017-10-27T06:43:32.815Z,1015.70
2017-10-27T06:44:33.446Z,1015.67
2017-10-27T06:45:34.070Z,1015.77
2017-10-27T06:46:34.681Z,1015.84
2017-10-27T06:47:35.288Z,1015.80
2017-10-27T06:48:35.899Z,1015.82
2017-10-27T06:49:36.502Z,1015.82
2017-10-27T06:50:37.117Z,1015.81
2017-10-27T06:51:37.801Z,1015.79
2017-10-27T06:52:38.427Z,1015.79
2017-10-27T06:53:39.077Z,1015.81
2017-10-27T06:54:39.681Z,1015.82
2017-10-27T06:55:40.287Z,1015.84
2017-10-27T06:56:40.903Z,1015.87
2017-10-27T06:57:41.521Z,1015.86
2017-10-27T06:58:42.167Z,1015.87
2017-10-27T06:59:42.760Z,1015.90
2017-10-27T07:00:43.407Z,1015.89
2017-10-27T07:01:44.002Z,1015.85
2017-10-27T07:02:44.687Z,1015.85
2017-10-27T07:03:45.269Z,1015.86
2017-10-27T07:04:45.882Z,1015.85
2017-10-27T07:05:46.697Z,1015.85
2017-10-27T07:06:47.352Z,1015.89
2017-10-27T07:07:47.958Z,1015.90
2017-10-27T07:08:48.555Z,1015.96
2017-10-27T07:09:49.189Z,1015.99
2017-10-27T07:10:49.787Z,1015.94
2017-10-27T07:11:50.393Z,1015.98
2017-10-27T07:12:51.044Z,1015.94
2017-10-27T07:13:51.658Z,1016.02
2017-10-27T07:14:52.287Z,1016.02
2017-10-27T07:15:52.901Z,1016.07
2017-10-27T07:16:53.519Z,1016.10
2017-10-27T07:17:54.142Z,1016.11
2017-10-27T07:18:54.763Z,1016.16
2017-10-27T07:19:55.383Z,1016.15
2017-10-27T07:20:55.987Z,1016.12
2017-10-27T07:21:56.618Z,1016.18
2017-10-27T07:22:57.232Z,1016.17
2017-10-27T07:23:57.851Z,1016.17
2017-10-27T07:24:58.467Z,1016.27
2017-10-27T07:25:59.093Z,1016.27
2017-10-27T07:26:59.710Z,1016.31
2017-10-27T07:28:00.424Z,1016.34
2017-10-27T07:29:01.037Z,1016.39
2017-10-27T07:30:01.639Z,1016.38
2017-10-27T07:31:02.257Z,1016.44
2017-10-27T07:32:02.861Z,1016.45
2017-10-27T07:33:03.472Z,1016.47
2017-10-27T07:34:04.082Z,1016.47
2017-10-27T07:35:04.704Z,1016.47
2017-10-27T07:36:05.317Z,1016.47
2017-10-27T07:37:05.933Z,1016.49
2017-10-27T07:38:06.540Z,1016.49
2017-10-27T07:39:07.158Z,1016.50
2017-10-27T07:40:07.783Z,1016.52
2017-10-27T07:41:08.444Z,1016.49
2017-10-27T07:42:09.033Z,1016.50
2017-10-27T07:43:09.645Z,1016.56
2017-10-27T07:44:10.267Z,1016.49
2017-10-27T07:45:10.872Z,1016.50
2017-10-27T07:46:11.477Z,1016.55
2017-10-27T07:47:12.094Z,1016.59
2017-10-27T07:48:12.729Z,1016.62
2017-10-27T07:49:13.326Z,1016.60
2017-10-27T07:50:13.966Z,1016.65
2017-10-27T07:51:14.583Z,1016.71
2017-10-27T07:52:15.248Z,1016.67
2017-10-27T07:53:15.881Z,1016.70
2017-10-27T07:54:16.501Z,1016.70
2017-10-27T07:55:17.117Z,1016.72
2017-10-27T07:56:17.734Z,1016.70
2017-10-27T07:57:18.344Z,1016.71
2017-10-27T07:58:18.998Z,1016.68
2017-10-27T07:59:19.614Z,1016.70
2017-10-27T08:00:20.346Z,1016.78
2017-10-27T08:01:20.938Z,1016.81
2017-10-27T08:02:21.552Z,1016.88
2017-10-27T08:03:22.164Z,1016.88
2017-10-27T08:04:22.808Z,1016.95
2017-10-27T08:05:23.398Z,1016.99
2017-10-27T08:06:24.015Z,1016.93
2017-10-27T08:07:24.680Z,1016.98
2017-10-27T08:08:25.269Z,1017.01
2017-10-27T08:09:25.886Z,1017.01
2017-10-27T08:10:26.551Z,1017.02
2017-10-27T08:11:27.184Z,1017.04
2017-10-27T08:12:27.796Z,1017.03
2017-10-27T08:13:28.406Z,1017.05
2017-10-27T08:14:29.013Z,1017.02
2017-10-27T08:15:29.619Z,1017.05
2017-10-27T08:16:30.240Z,1017.04
2017-10-27T08:17:30.934Z,1017.11
2017-10-27T08:18:31.614Z,1017.12
2017-10-27T08:19:32.203Z,1017.16
2017-10-27T08:20:32.814Z,1017.17
2017-10-27T08:21:33.428Z,1017.25
2017-10-27T08:22:34.044Z,1017.27
2017-10-27T08:23:34.654Z,1017.21
2017-10-27T08:24:35.264Z,1017.24
2017-10-27T08:25:35.868Z,1017.29
2017-10-27T08:26:36.478Z,1017.37
2017-10-27T08:27:37.169Z,1017.35
2017-10-27T08:28:37.801Z,1017.34
2017-10-27T08:29:38.391Z,1017.37
2017-10-27T08:30:39.350Z,1017.31
2017-10-27T08:31:40.022Z,1017.39
2017-10-27T08:32:40.574Z,1017.32
2017-10-27T08:33:41.190Z,1017.29
2017-10-27T08:34:41.808Z,1017.30
2017-10-27T08:35:42.418Z,1017.35
2017-10-27T08:36:43.043Z,1017.39
2017-10-27T08:37:43.653Z,1017.41
2017-10-27T08:38:44.299Z,1017.37
2017-10-27T08:39:44.927Z,1017.43
2017-10-27T08:40:45.538Z,1017.43
2017-10-27T08:41:46.155Z,1017.36
2017-10-27T08:42:46.769Z,1017.39
2017-10-27T08:43:47.369Z,1017.41
2017-10-27T08:44:48.002Z,1017.35
2017-10-27T08:45:48.599Z,1017.42
2017-10-27T08:46:49.218Z,1017.39
2017-10-27T08:47:49.837Z,1017.36
2017-10-27T08:48:50.464Z,1017.42
2017-10-27T08:49:51.114Z,1017.41
2017-10-27T08:50:51.692Z,1017.43
2017-10-27T08:51:52.308Z,1017.38
2017-10-27T08:52:52.933Z,1017.48
2017-10-27T08:53:53.553Z,1017.57
2017-10-27T08:54:54.226Z,1017.51
2017-10-27T08:55:54.775Z,1017.50
2017-10-27T08:56:55.454Z,1017.46
2017-10-27T08:57:56.080Z,1017.56
2017-10-27T08:58:56.710Z,1017.58
2017-10-27T08:59:57.340Z,1017.62
2017-10-27T09:00:57.956Z,1017.64
2017-10-27T09:01:58.575Z,1017.65
2017-10-27T09:02:59.198Z,1017.68
2017-10-27T09:03:59.823Z,1017.64
2017-10-27T09:05:00.429Z,1017.68
2017-10-27T09:06:01.067Z,1017.62
2017-10-27T09:07:01.715Z,1017.60
2017-10-27T09:08:02.328Z,1017.69
2017-10-27T09:09:02.961Z,1017.75
2017-10-27T09:10:03.585Z,1017.78
2017-10-27T09:11:04.210Z,1017.83
2017-10-27T09:12:04.832Z,1017.85
2017-10-27T09:13:05.464Z,1017.92
2017-10-27T09:14:06.081Z,1017.94
2017-10-27T09:15:06.699Z,1017.92
2017-10-27T09:16:07.318Z,1017.96
2017-10-27T09:17:07.934Z,1017.95
2017-10-27T09:18:08.543Z,1017.97
2017-10-27T09:19:09.162Z,1017.93
2017-10-27T09:20:09.785Z,1017.98
2017-10-27T09:21:10.409Z,1018.04
2017-10-27T09:22:11.027Z,1018.11
2017-10-27T09:23:11.655Z,1018.07
2017-10-27T09:24:12.273Z,1018.02
2017-10-27T09:25:12.893Z,1018.02
2017-10-27T09:26:13.542Z,1018.07
2017-10-27T09:27:14.167Z,1018.05
2017-10-27T09:28:14.768Z,1018.09
2017-10-27T09:29:15.400Z,1018.06
2017-10-27T09:30:16.030Z,1018.05
2017-10-27T09:31:16.638Z,1018.10
2017-10-27T09:32:17.247Z,1018.10
2017-10-27T09:33:17.877Z,1018.08
2017-10-27T09:34:18.496Z,1018.09
2017-10-27T09:35:19.115Z,1018.08
2017-10-27T09:36:19.740Z,1018.12
2017-10-27T09:37:20.379Z,1018.16
2017-10-27T09:38:21.029Z,1018.14
2017-10-27T09:39:21.638Z,1018.20
2017-10-27T09:40:22.262Z,1018.14
2017-10-27T09:41:22.895Z,1018.17
2017-10-27T09:42:23.496Z,1018.18
2017-10-27T09:43:24.122Z,1018.22
2017-10-27T09:44:24.737Z,1018.26
2017-10-27T09:45:25.367Z,1018.25
2017-10-27T09:46:25.988Z,1018.35
2017-10-27T09:47:26.598Z,1018.31
2017-10-27T09:48:27.226Z,1018.37
2017-10-27T09:49:27.860Z,1018.39
2017-10-27T09:50:28.478Z,1018.41
2017-10-27T09:51:29.092Z,1018.42
2017-10-27T09:52:29.720Z,1018.44
2017-10-27T09:53:30.343Z,1018.34
2017-10-27T09:54:30.968Z,1018.38
2017-10-27T09:55:31.586Z,1018.48
2017-10-27T09:56:32.203Z,1018.38
2017-10-27T09:57:32.824Z,1018.52
2017-10-27T09:58:33.448Z,1018.47
2017-10-27T09:59:34.070Z,1018.49
2017-10-27T10:00:34.731Z,1018.54
2017-10-27T10:01:35.332Z,1018.55
2017-10-27T10:02:35.959Z,1018.64
2017-10-27T10:03:36.585Z,1018.56
2017-10-27T10:04:37.212Z,1018.53
2017-10-27T10:05:37.836Z,1018.57
2017-10-27T10:06:38.454Z,1018.55
2017-10-27T10:07:39.083Z,1018.60
2017-10-27T10:08:39.931Z,1018.63
2017-10-27T10:09:40.530Z,1018.69
2017-10-27T10:10:41.154Z,1018.69
2017-10-27T10:11:41.774Z,1018.71
2017-10-27T10:12:42.383Z,1018.78
2017-10-27T10:13:43.015Z,1018.76
2017-10-27T10:14:43.630Z,1018.82
2017-10-27T10:15:44.249Z,1018.72
2017-10-27T10:16:44.904Z,1018.87
2017-10-27T10:17:45.790Z,1018.80
2017-10-27T10:18:46.357Z,1018.80
2017-10-27T10:19:46.986Z,1018.80
2017-10-27T10:20:47.613Z,1018.87
2017-10-27T10:21:48.265Z,1018.90
2017-10-27T10:22:48.856Z,1018.91
2017-10-27T10:23:49.475Z,1018.84
2017-10-27T10:24:50.095Z,1018.85
2017-10-27T10:25:50.724Z,1018.88
2017-10-27T10:26:51.336Z,1018.86
2017-10-27T10:27:51.962Z,1018.86
2017-10-27T10:28:52.592Z,1018.85
2017-10-27T10:29:53.213Z,1018.83
2017-10-27T10:30:53.873Z,1018.87
2017-10-27T10:31:54.472Z,1018.87
2017-10-27T10:32:55.188Z,1018.90
2017-10-27T10:33:55.725Z,1018.87
2017-10-27T10:34:56.332Z,1018.87
2017-10-27T10:35:56.944Z,1018.82
2017-10-27T10:36:57.555Z,1018.75
2017-10-27T10:37:58.184Z,1018.83
2017-10-27T10:38:58.803Z,1018.90
2017-10-27T10:39:59.421Z,1018.89
2017-10-27T10:41:00.053Z,1018.92
2017-10-27T10:42:00.669Z,1018.87
2017-10-27T10:43:01.289Z,1018.93
2017-10-27T10:44:01.903Z,1018.95
2017-10-27T10:45:02.516Z,1018.92
2017-10-27T10:46:03.155Z,1018.95
2017-10-27T10:47:03.792Z,1018.92
2017-10-27T10:48:04.395Z,1018.90
2017-10-27T10:49:05.027Z,1018.95
2017-10-27T10:50:05.654Z,1018.92
2017-10-27T10:51:06.402Z,1018.96
2017-10-27T10:52:07.012Z,1019.02
2017-10-27T10:53:07.707Z,1018.94
2017-10-27T10:54:09.338Z,1018.99
2017-10-27T10:55:09.893Z,1019.05
2017-10-27T10:56:10.479Z,1018.98
2017-10-27T10:57:11.105Z,1018.98
2017-10-27T10:58:11.723Z,1018.90
2017-10-27T10:59:12.354Z,1018.98
2017-10-27T11:00:12.976Z,1018.99
2017-10-27T11:01:13.603Z,1018.97
2017-10-27T11:02:14.449Z,1018.97
2017-10-27T11:03:15.065Z,1019.02
2017-10-27T11:04:15.684Z,1018.99
2017-10-27T11:05:16.296Z,1018.98
2017-10-27T11:06:16.913Z,1018.99
2017-10-27T11:07:17.526Z,1019.01
2017-10-27T11:08:18.150Z,1018.96
2017-10-27T11:09:18.768Z,1019.01
2017-10-27T11:10:19.386Z,1019.04
2017-10-27T11:11:20.012Z,1018.94
2017-10-27T11:12:20.615Z,1018.97
2017-10-27T11:13:21.234Z,1018.97
2017-10-27T11:14:21.867Z,1019.02
2017-10-27T11:15:22.478Z,1019.09
2017-10-27T11:16:23.102Z,1019.02
2017-10-27T11:17:23.706Z,1019.07
2017-10-27T11:18:24.364Z,1019.09
2017-10-27T11:19:25.004Z,1019.15
2017-10-27T11:20:25.613Z,1019.08
2017-10-27T11:21:26.243Z,1019.05
2017-10-27T11:22:26.848Z,1019.05
2017-10-27T11:23:27.475Z,1019.09
2017-10-27T11:24:28.093Z,1019.03
2017-10-27T11:25:28.734Z,1019.07
2017-10-27T11:26:29.332Z,1019.02
2017-10-27T11:27:29.938Z,1019.07
2017-10-27T11:28:30.553Z,1019.10
2017-10-27T11:29:31.168Z,1019.13
2017-10-27T11:30:31.820Z,1019.10
2017-10-27T11:31:32.430Z,1019.16
2017-10-27T11:32:33.043Z,1019.06
2017-10-27T11:33:33.671Z,1019.05
2017-10-27T11:34:34.287Z,1019.08
2017-10-27T11:35:34.914Z,1019.06
2017-10-27T11:36:35.527Z,1019.02
2017-10-27T11:37:36.137Z,1019.02
2017-10-27T11:38:36.761Z,1019.00
2017-10-27T11:39:37.382Z,1019.00
2017-10-27T11:40:38.138Z,1019.06
2017-10-27T11:41:38.754Z,1019.05
2017-10-27T11:42:39.368Z,1018.95
2017-10-27T11:43:39.984Z,1019.00
2017-10-27T11:44:40.617Z,1018.97
2017-10-27T11:45:41.220Z,1019.03
2017-10-27T11:46:41.842Z,1019.03
2017-10-27T11:47:42.461Z,1018.87
2017-10-27T11:48:43.083Z,1018.97
2017-10-27T11:49:43.711Z,1019.01
2017-10-27T11:50:44.344Z,1018.99
2017-10-27T11:51:44.974Z,1018.96
2017-10-27T11:52:45.592Z,1018.99
2017-10-27T11:53:46.215Z,1018.95
2017-10-27T11:54:46.820Z,1018.96
2017-10-27T11:55:47.437Z,1018.97
2017-10-27T11:56:48.073Z,1019.02
2017-10-27T11:57:48.678Z,1019.00
2017-10-27T11:58:49.297Z,1018.95
2017-10-27T11:59:49.918Z,1018.96
2017-10-27T12:00:50.540Z,1018.98
2017-10-27T12:01:51.173Z,1018.90
2017-10-27T12:02:51.800Z,1018.91
2017-10-27T12:03:52.432Z,1018.95
2017-10-27T12:04:53.065Z,1018.97
2017-10-27T12:05:53.693Z,1018.93
2017-10-27T12:06:54.300Z,1018.92
2017-10-27T12:07:54.938Z,1018.93
2017-10-27T12:08:55.581Z,1018.96
2017-10-27T12:09:56.201Z,1018.93
2017-10-27T12:10:56.821Z,1018.90
2017-10-27T12:11:57.454Z,1018.98
2017-10-27T12:12:58.068Z,1019.00
2017-10-27T12:13:58.681Z,1019.05